Terminal Aerodrome Forecast
Issued by NWS Norman, OK

Home | Current Version | Previous Version | Text Only | Print | Product List | Glossary On
Versions: 1 2 3 4 5 6 7 8 9 10 11 12 13 14 15 16 17
000
FTUS44 KOUN 291241 AAA
TAFOKC
TAF AMD
KOKC 291241Z 2913/3012 36015G23KT P6SM VCTS BKN020CB OVC060
      TEMPO 2913/2914 01020G28KT 1 1/2SM +TSRA BKN012CB OVC040
     FM291400 04008KT 6SM -RA VCTS BKN050CB OVC100
     FM291600 11008KT P6SM BKN070 BKN120 OVC200
     FM300000 12008KT P6SM SCT050 BKN250=

USA.gov is the U.S. government's official web portal to all federal, state and local government web resources and services.